sensor_id;sensor_type;location;lat;lon;timestamp;P1;durP1;ratioP1;P2;durP2;ratioP2
52186;SDS011;38161;53.020;6.598;2023-05-29T00:00:47;13.47;;;2.77;;
52186;SDS011;38161;53.020;6.598;2023-05-29T00:03:13;12.18;;;2.83;;
52186;SDS011;38161;53.020;6.598;2023-05-29T00:05:39;14.27;;;3.28;;
52186;SDS011;38161;53.020;6.598;2023-05-29T00:08:05;11.10;;;3.10;;
52186;SDS011;38161;53.020;6.598;2023-05-29T00:10:31;12.40;;;3.03;;
52186;SDS011;38161;53.020;6.598;2023-05-29T00:12:57;13.32;;;3.65;;
52186;SDS011;38161;53.020;6.598;2023-05-29T00:15:26;10.93;;;3.08;;
52186;SDS011;38161;53.020;6.598;2023-05-29T00:17:52;14.55;;;3.63;;
52186;SDS011;38161;53.020;6.598;2023-05-29T00:20:17;10.33;;;2.77;;
52186;SDS011;38161;53.020;6.598;2023-05-29T00:22:43;12.45;;;2.75;;
52186;SDS011;38161;53.020;6.598;2023-05-29T00:25:09;11.20;;;3.25;;
52186;SDS011;38161;53.020;6.598;2023-05-29T00:27:35;11.95;;;3.08;;
52186;SDS011;38161;53.020;6.598;2023-05-29T00:30:02;7.82;;;2.58;;
52186;SDS011;38161;53.020;6.598;2023-05-29T00:32:29;12.85;;;2.83;;
52186;SDS011;38161;53.020;6.598;2023-05-29T00:34:54;12.90;;;2.97;;
52186;SDS011;38161;53.020;6.598;2023-05-29T00:37:21;15.50;;;3.15;;
52186;SDS011;38161;53.020;6.598;2023-05-29T00:39:47;8.85;;;2.50;;
52186;SDS011;38161;53.020;6.598;2023-05-29T00:44:39;9.93;;;3.30;;
52186;SDS011;38161;53.020;6.598;2023-05-29T00:47:05;13.97;;;3.17;;
52186;SDS011;38161;53.020;6.598;2023-05-29T00:51:58;9.05;;;2.45;;
52186;SDS011;38161;53.020;6.598;2023-05-29T00:54:26;11.10;;;3.90;;
52186;SDS011;38161;53.020;6.598;2023-05-29T00:56:54;12.27;;;2.65;;
52186;SDS011;38161;53.020;6.598;2023-05-29T00:59:22;14.00;;;2.60;;
52186;SDS011;38161;53.020;6.598;2023-05-29T01:01:49;11.73;;;3.17;;
52186;SDS011;38161;53.020;6.598;2023-05-29T01:04:16;11.82;;;2.70;;
52186;SDS011;38161;53.020;6.598;2023-05-29T01:06:43;15.73;;;3.30;;
52186;SDS011;38161;53.020;6.598;2023-05-29T01:17:31;10.10;;;2.85;;
52186;SDS011;38161;53.020;6.598;2023-05-29T01:21:14;11.05;;;2.65;;
52186;SDS011;38161;53.020;6.598;2023-05-29T01:29:17;12.38;;;2.67;;
52186;SDS011;38161;53.020;6.598;2023-05-29T01:31:46;10.23;;;2.15;;
52186;SDS011;38161;53.020;6.598;2023-05-29T01:34:13;10.65;;;2.53;;
52186;SDS011;38161;53.020;6.598;2023-05-29T01:36:39;15.88;;;3.10;;
52186;SDS011;38161;53.020;6.598;2023-05-29T01:39:04;13.88;;;2.90;;
52186;SDS011;38161;53.020;6.598;2023-05-29T01:41:30;11.18;;;3.13;;
52186;SDS011;38161;53.020;6.598;2023-05-29T01:46:24;15.15;;;3.45;;
52186;SDS011;38161;53.020;6.598;2023-05-29T01:48:50;11.98;;;2.65;;
52186;SDS011;38161;53.020;6.598;2023-05-29T01:51:18;15.95;;;2.90;;
52186;SDS011;38161;53.020;6.598;2023-05-29T01:53:43;13.57;;;2.73;;
52186;SDS011;38161;53.020;6.598;2023-05-29T01:56:09;14.27;;;2.92;;
52186;SDS011;38161;53.020;6.598;2023-05-29T01:58:35;11.93;;;3.03;;
52186;SDS011;38161;53.020;6.598;2023-05-29T02:01:03;10.70;;;3.17;;
52186;SDS011;38161;53.020;6.598;2023-05-29T02:03:31;13.57;;;2.95;;
52186;SDS011;38161;53.020;6.598;2023-05-29T02:05:57;9.98;;;2.80;;
52186;SDS011;38161;53.020;6.598;2023-05-29T02:08:24;10.80;;;2.70;;
52186;SDS011;38161;53.020;6.598;2023-05-29T02:10:50;10.63;;;2.97;;
52186;SDS011;38161;53.020;6.598;2023-05-29T02:13:16;9.07;;;2.50;;
52186;SDS011;38161;53.020;6.598;2023-05-29T02:15:42;10.65;;;2.70;;
52186;SDS011;38161;53.020;6.598;2023-05-29T02:18:14;12.68;;;3.17;;
52186;SDS011;38161;53.020;6.598;2023-05-29T02:20:42;15.25;;;3.00;;
52186;SDS011;38161;53.020;6.598;2023-05-29T02:23:08;11.60;;;3.15;;
52186;SDS011;38161;53.020;6.598;2023-05-29T02:25:34;11.68;;;3.15;;
52186;SDS011;38161;53.020;6.598;2023-05-29T02:28:01;12.77;;;2.83;;
52186;SDS011;38161;53.020;6.598;2023-05-29T02:30:28;11.25;;;2.90;;
52186;SDS011;38161;53.020;6.598;2023-05-29T02:32:54;11.85;;;3.30;;
52186;SDS011;38161;53.020;6.598;2023-05-29T02:35:20;12.95;;;2.72;;
52186;SDS011;38161;53.020;6.598;2023-05-29T02:37:48;11.77;;;2.53;;
52186;SDS011;38161;53.020;6.598;2023-05-29T02:42:40;14.27;;;2.83;;
52186;SDS011;38161;53.020;6.598;2023-05-29T02:45:06;15.13;;;3.20;;
52186;SDS011;38161;53.020;6.598;2023-05-29T02:47:32;11.57;;;3.13;;
52186;SDS011;38161;53.020;6.598;2023-05-29T02:49:58;12.57;;;2.63;;
52186;SDS011;38161;53.020;6.598;2023-05-29T02:52:24;10.87;;;2.70;;
52186;SDS011;38161;53.020;6.598;2023-05-29T02:54:49;13.83;;;3.57;;
52186;SDS011;38161;53.020;6.598;2023-05-29T02:57:15;14.60;;;3.27;;
52186;SDS011;38161;53.020;6.598;2023-05-29T02:59:43;11.20;;;2.63;;
52186;SDS011;38161;53.020;6.598;2023-05-29T03:02:10;9.45;;;2.55;;
52186;SDS011;38161;53.020;6.598;2023-05-29T03:04:36;9.68;;;2.70;;
52186;SDS011;38161;53.020;6.598;2023-05-29T03:07:02;11.07;;;2.83;;
52186;SDS011;38161;53.020;6.598;2023-05-29T03:09:28;10.65;;;2.75;;
52186;SDS011;38161;53.020;6.598;2023-05-29T03:11:54;11.57;;;2.83;;
52186;SDS011;38161;53.020;6.598;2023-05-29T03:14:19;13.30;;;3.03;;
52186;SDS011;38161;53.020;6.598;2023-05-29T03:19:12;12.00;;;3.30;;
52186;SDS011;38161;53.020;6.598;2023-05-29T03:21:38;13.80;;;3.20;;
52186;SDS011;38161;53.020;6.598;2023-05-29T03:24:04;12.13;;;3.50;;
52186;SDS011;38161;53.020;6.598;2023-05-29T03:26:30;15.85;;;3.60;;
52186;SDS011;38161;53.020;6.598;2023-05-29T03:28:56;11.98;;;3.45;;
52186;SDS011;38161;53.020;6.598;2023-05-29T03:31:25;9.57;;;3.17;;
52186;SDS011;38161;53.020;6.598;2023-05-29T03:33:50;13.02;;;2.97;;
52186;SDS011;38161;53.020;6.598;2023-05-29T03:36:16;11.93;;;2.87;;
52186;SDS011;38161;53.020;6.598;2023-05-29T03:38:42;10.63;;;2.53;;
52186;SDS011;38161;53.020;6.598;2023-05-29T03:41:08;10.43;;;3.15;;
52186;SDS011;38161;53.020;6.598;2023-05-29T03:43:34;14.30;;;3.78;;
52186;SDS011;38161;53.020;6.598;2023-05-29T03:46:01;11.93;;;3.25;;
52186;SDS011;38161;53.020;6.598;2023-05-29T03:48:27;12.85;;;3.08;;
52186;SDS011;38161;53.020;6.598;2023-05-29T03:50:53;10.13;;;3.08;;
52186;SDS011;38161;53.020;6.598;2023-05-29T03:53:18;10.53;;;3.33;;
52186;SDS011;38161;53.020;6.598;2023-05-29T03:55:44;11.63;;;2.60;;
52186;SDS011;38161;53.020;6.598;2023-05-29T03:58:10;11.47;;;2.53;;
52186;SDS011;38161;53.020;6.598;2023-05-29T04:00:37;9.00;;;3.13;;
52186;SDS011;38161;53.020;6.598;2023-05-29T04:05:29;6.45;;;2.28;;
52186;SDS011;38161;53.020;6.598;2023-05-29T04:07:56;9.65;;;2.22;;
52186;SDS011;38161;53.020;6.598;2023-05-29T04:10:21;9.60;;;2.95;;
52186;SDS011;38161;53.020;6.598;2023-05-29T04:12:48;8.20;;;2.95;;
52186;SDS011;38161;53.020;6.598;2023-05-29T04:15:14;9.57;;;3.17;;
52186;SDS011;38161;53.020;6.598;2023-05-29T04:17:40;10.77;;;2.40;;
52186;SDS011;38161;53.020;6.598;2023-05-29T04:20:06;17.27;;;2.90;;
52186;SDS011;38161;53.020;6.598;2023-05-29T04:22:37;12.70;;;2.67;;
52186;SDS011;38161;53.020;6.598;2023-05-29T04:25:03;10.15;;;2.95;;
52186;SDS011;38161;53.020;6.598;2023-05-29T04:27:30;15.18;;;2.85;;
52186;SDS011;38161;53.020;6.598;2023-05-29T04:30:03;10.45;;;2.92;;
52186;SDS011;38161;53.020;6.598;2023-05-29T04:32:30;8.75;;;2.75;;
52186;SDS011;38161;53.020;6.598;2023-05-29T04:34:58;10.10;;;2.78;;
52186;SDS011;38161;53.020;6.598;2023-05-29T04:37:28;9.43;;;3.30;;
52186;SDS011;38161;53.020;6.598;2023-05-29T04:39:57;10.80;;;3.10;;
52186;SDS011;38161;53.020;6.598;2023-05-29T04:42:23;14.07;;;3.05;;
52186;SDS011;38161;53.020;6.598;2023-05-29T04:44:52;9.13;;;3.05;;
52186;SDS011;38161;53.020;6.598;2023-05-29T04:47:19;10.13;;;2.80;;
52186;SDS011;38161;53.020;6.598;2023-05-29T04:49:45;7.90;;;2.93;;
52186;SDS011;38161;53.020;6.598;2023-05-29T04:52:15;10.77;;;2.65;;
52186;SDS011;38161;53.020;6.598;2023-05-29T04:54:41;7.25;;;2.65;;
52186;SDS011;38161;53.020;6.598;2023-05-29T04:57:07;11.87;;;3.30;;
52186;SDS011;38161;53.020;6.598;2023-05-29T05:02:00;10.88;;;3.08;;
52186;SDS011;38161;53.020;6.598;2023-05-29T05:04:26;14.65;;;3.40;;
52186;SDS011;38161;53.020;6.598;2023-05-29T05:06:51;11.13;;;3.28;;
52186;SDS011;38161;53.020;6.598;2023-05-29T05:09:17;10.40;;;2.97;;
52186;SDS011;38161;53.020;6.598;2023-05-29T05:11:43;10.80;;;3.50;;
52186;SDS011;38161;53.020;6.598;2023-05-29T05:14:09;9.23;;;3.03;;
52186;SDS011;38161;53.020;6.598;2023-05-29T05:16:35;14.50;;;3.88;;
52186;SDS011;38161;53.020;6.598;2023-05-29T05:19:00;11.32;;;3.20;;
52186;SDS011;38161;53.020;6.598;2023-05-29T05:21:26;9.23;;;2.80;;
52186;SDS011;38161;53.020;6.598;2023-05-29T05:23:52;11.48;;;2.92;;
52186;SDS011;38161;53.020;6.598;2023-05-29T05:26:18;17.83;;;3.33;;
52186;SDS011;38161;53.020;6.598;2023-05-29T05:28:43;10.97;;;3.23;;
52186;SDS011;38161;53.020;6.598;2023-05-29T05:31:09;13.85;;;3.15;;
52186;SDS011;38161;53.020;6.598;2023-05-29T05:33:36;12.15;;;3.53;;
52186;SDS011;38161;53.020;6.598;2023-05-29T05:36:02;11.88;;;3.15;;
52186;SDS011;38161;53.020;6.598;2023-05-29T05:38:28;15.68;;;3.50;;
52186;SDS011;38161;53.020;6.598;2023-05-29T05:40:54;13.00;;;3.63;;
52186;SDS011;38161;53.020;6.598;2023-05-29T05:43:21;15.85;;;3.80;;
52186;SDS011;38161;53.020;6.598;2023-05-29T05:45:47;10.10;;;3.90;;
52186;SDS011;38161;53.020;6.598;2023-05-29T05:48:13;14.87;;;4.30;;
52186;SDS011;38161;53.020;6.598;2023-05-29T05:50:38;10.37;;;3.07;;
52186;SDS011;38161;53.020;6.598;2023-05-29T05:53:05;17.45;;;4.30;;
52186;SDS011;38161;53.020;6.598;2023-05-29T05:55:31;15.65;;;3.60;;
52186;SDS011;38161;53.020;6.598;2023-05-29T05:57:56;11.40;;;3.60;;
52186;SDS011;38161;53.020;6.598;2023-05-29T06:00:23;14.15;;;3.53;;
52186;SDS011;38161;53.020;6.598;2023-05-29T06:05:14;15.27;;;3.80;;
52186;SDS011;38161;53.020;6.598;2023-05-29T06:07:41;11.40;;;3.13;;
52186;SDS011;38161;53.020;6.598;2023-05-29T06:10:07;17.80;;;4.85;;
52186;SDS011;38161;53.020;6.598;2023-05-29T06:12:33;14.52;;;3.38;;
52186;SDS011;38161;53.020;6.598;2023-05-29T06:14:59;15.07;;;3.90;;
52186;SDS011;38161;53.020;6.598;2023-05-29T06:17:25;17.23;;;3.67;;
52186;SDS011;38161;53.020;6.598;2023-05-29T06:19:52;14.95;;;3.42;;
52186;SDS011;38161;53.020;6.598;2023-05-29T06:22:18;12.88;;;3.90;;
52186;SDS011;38161;53.020;6.598;2023-05-29T06:24:44;15.07;;;3.78;;
52186;SDS011;38161;53.020;6.598;2023-05-29T06:27:12;11.25;;;3.47;;
52186;SDS011;38161;53.020;6.598;2023-05-29T06:29:38;15.33;;;3.73;;
52186;SDS011;38161;53.020;6.598;2023-05-29T06:32:03;17.20;;;3.93;;
52186;SDS011;38161;53.020;6.598;2023-05-29T06:34:30;14.85;;;3.38;;
52186;SDS011;38161;53.020;6.598;2023-05-29T06:36:55;11.80;;;3.88;;
52186;SDS011;38161;53.020;6.598;2023-05-29T06:39:21;12.10;;;3.60;;
52186;SDS011;38161;53.020;6.598;2023-05-29T06:41:47;18.23;;;4.13;;
52186;SDS011;38161;53.020;6.598;2023-05-29T06:44:13;19.80;;;4.88;;
52186;SDS011;38161;53.020;6.598;2023-05-29T06:46:38;16.15;;;3.72;;
52186;SDS011;38161;53.020;6.598;2023-05-29T06:49:04;14.43;;;4.00;;
52186;SDS011;38161;53.020;6.598;2023-05-29T06:51:30;19.27;;;4.30;;
52186;SDS011;38161;53.020;6.598;2023-05-29T06:53:57;12.75;;;4.03;;
52186;SDS011;38161;53.020;6.598;2023-05-29T06:56:23;16.70;;;4.60;;
52186;SDS011;38161;53.020;6.598;2023-05-29T06:58:49;12.80;;;4.00;;
52186;SDS011;38161;53.020;6.598;2023-05-29T07:01:16;16.05;;;3.80;;
52186;SDS011;38161;53.020;6.598;2023-05-29T07:03:42;9.63;;;3.60;;
52186;SDS011;38161;53.020;6.598;2023-05-29T07:06:08;12.25;;;3.83;;
52186;SDS011;38161;53.020;6.598;2023-05-29T07:08:34;13.10;;;3.60;;
52186;SDS011;38161;53.020;6.598;2023-05-29T07:11:01;14.63;;;4.43;;
52186;SDS011;38161;53.020;6.598;2023-05-29T07:13:27;18.52;;;4.25;;
52186;SDS011;38161;53.020;6.598;2023-05-29T07:15:53;12.15;;;4.00;;
52186;SDS011;38161;53.020;6.598;2023-05-29T07:18:19;18.95;;;4.05;;
52186;SDS011;38161;53.020;6.598;2023-05-29T07:20:44;12.23;;;3.90;;
52186;SDS011;38161;53.020;6.598;2023-05-29T07:23:10;15.30;;;4.07;;
52186;SDS011;38161;53.020;6.598;2023-05-29T07:25:36;17.83;;;4.20;;
52186;SDS011;38161;53.020;6.598;2023-05-29T07:28:02;19.95;;;4.53;;
52186;SDS011;38161;53.020;6.598;2023-05-29T07:30:27;22.10;;;4.67;;
52186;SDS011;38161;53.020;6.598;2023-05-29T07:32:53;12.05;;;3.88;;
52186;SDS011;38161;53.020;6.598;2023-05-29T07:35:19;16.35;;;3.83;;
52186;SDS011;38161;53.020;6.598;2023-05-29T07:37:45;15.65;;;4.47;;
52186;SDS011;38161;53.020;6.598;2023-05-29T07:40:13;15.52;;;4.30;;
52186;SDS011;38161;53.020;6.598;2023-05-29T07:42:39;20.20;;;5.47;;
52186;SDS011;38161;53.020;6.598;2023-05-29T07:45:04;18.40;;;3.80;;
52186;SDS011;38161;53.020;6.598;2023-05-29T07:47:30;18.33;;;4.15;;
52186;SDS011;38161;53.020;6.598;2023-05-29T07:49:56;14.65;;;4.30;;
52186;SDS011;38161;53.020;6.598;2023-05-29T07:52:22;13.50;;;3.88;;
52186;SDS011;38161;53.020;6.598;2023-05-29T07:54:48;14.65;;;4.50;;
52186;SDS011;38161;53.020;6.598;2023-05-29T07:57:14;11.40;;;3.67;;
52186;SDS011;38161;53.020;6.598;2023-05-29T07:59:43;20.75;;;5.07;;
52186;SDS011;38161;53.020;6.598;2023-05-29T08:02:09;17.23;;;4.90;;
52186;SDS011;38161;53.020;6.598;2023-05-29T08:04:35;16.40;;;4.95;;
52186;SDS011;38161;53.020;6.598;2023-05-29T08:07:01;19.35;;;4.93;;
52186;SDS011;38161;53.020;6.598;2023-05-29T08:09:30;17.67;;;4.60;;
52186;SDS011;38161;53.020;6.598;2023-05-29T08:11:56;17.48;;;4.80;;
52186;SDS011;38161;53.020;6.598;2023-05-29T08:14:22;12.80;;;4.18;;
52186;SDS011;38161;53.020;6.598;2023-05-29T08:16:48;15.20;;;4.72;;
52186;SDS011;38161;53.020;6.598;2023-05-29T08:19:14;14.20;;;4.32;;
52186;SDS011;38161;53.020;6.598;2023-05-29T08:21:41;15.02;;;4.63;;
52186;SDS011;38161;53.020;6.598;2023-05-29T08:24:06;11.05;;;3.83;;
52186;SDS011;38161;53.020;6.598;2023-05-29T08:26:33;18.75;;;4.30;;
52186;SDS011;38161;53.020;6.598;2023-05-29T08:29:00;13.95;;;4.30;;
52186;SDS011;38161;53.020;6.598;2023-05-29T08:31:26;14.48;;;4.25;;
52186;SDS011;38161;53.020;6.598;2023-05-29T08:33:52;15.10;;;4.15;;
52186;SDS011;38161;53.020;6.598;2023-05-29T08:38:47;12.75;;;3.63;;
52186;SDS011;38161;53.020;6.598;2023-05-29T08:41:20;11.68;;;3.50;;
52186;SDS011;38161;53.020;6.598;2023-05-29T08:43:50;16.05;;;3.45;;
52186;SDS011;38161;53.020;6.598;2023-05-29T08:46:18;21.42;;;4.57;;
52186;SDS011;38161;53.020;6.598;2023-05-29T08:48:48;19.15;;;4.13;;
52186;SDS011;38161;53.020;6.598;2023-05-29T08:51:19;19.08;;;4.80;;
52186;SDS011;38161;53.020;6.598;2023-05-29T08:53:47;11.88;;;3.92;;
52186;SDS011;38161;53.020;6.598;2023-05-29T08:58:39;12.65;;;3.95;;
52186;SDS011;38161;53.020;6.598;2023-05-29T09:01:05;13.50;;;4.63;;
52186;SDS011;38161;53.020;6.598;2023-05-29T09:03:31;14.95;;;4.40;;
52186;SDS011;38161;53.020;6.598;2023-05-29T09:05:59;16.55;;;4.13;;
52186;SDS011;38161;53.020;6.598;2023-05-29T09:08:25;13.25;;;4.22;;
52186;SDS011;38161;53.020;6.598;2023-05-29T09:10:53;21.30;;;5.00;;
52186;SDS011;38161;53.020;6.598;2023-05-29T09:13:20;16.63;;;4.57;;
52186;SDS011;38161;53.020;6.598;2023-05-29T09:15:46;12.48;;;4.20;;
52186;SDS011;38161;53.020;6.598;2023-05-29T09:18:12;12.50;;;3.92;;
52186;SDS011;38161;53.020;6.598;2023-05-29T09:20:37;12.73;;;4.25;;
52186;SDS011;38161;53.020;6.598;2023-05-29T09:23:04;13.20;;;4.40;;
52186;SDS011;38161;53.020;6.598;2023-05-29T09:25:32;17.35;;;5.65;;
52186;SDS011;38161;53.020;6.598;2023-05-29T09:28:04;17.27;;;4.32;;
52186;SDS011;38161;53.020;6.598;2023-05-29T09:33:09;15.48;;;4.45;;
52186;SDS011;38161;53.020;6.598;2023-05-29T09:35:42;14.18;;;4.88;;
52186;SDS011;38161;53.020;6.598;2023-05-29T09:38:10;14.20;;;4.90;;
52186;SDS011;38161;53.020;6.598;2023-05-29T09:40:37;12.13;;;4.45;;
52186;SDS011;38161;53.020;6.598;2023-05-29T09:43:11;13.85;;;5.07;;
52186;SDS011;38161;53.020;6.598;2023-05-29T09:45:40;22.83;;;5.80;;
52186;SDS011;38161;53.020;6.598;2023-05-29T09:48:07;18.25;;;5.88;;
52186;SDS011;38161;53.020;6.598;2023-05-29T09:50:37;15.38;;;4.70;;
52186;SDS011;38161;53.020;6.598;2023-05-29T09:55:41;13.07;;;4.20;;
52186;SDS011;38161;53.020;6.598;2023-05-29T09:58:07;18.70;;;4.55;;
52186;SDS011;38161;53.020;6.598;2023-05-29T10:00:34;17.65;;;5.07;;
52186;SDS011;38161;53.020;6.598;2023-05-29T10:03:00;16.70;;;5.40;;
52186;SDS011;38161;53.020;6.598;2023-05-29T10:05:25;16.65;;;4.70;;
52186;SDS011;38161;53.020;6.598;2023-05-29T10:07:52;22.17;;;5.85;;
52186;SDS011;38161;53.020;6.598;2023-05-29T10:10:19;17.00;;;4.82;;
52186;SDS011;38161;53.020;6.598;2023-05-29T10:12:47;14.27;;;4.60;;
52186;SDS011;38161;53.020;6.598;2023-05-29T10:15:14;22.08;;;5.53;;
52186;SDS011;38161;53.020;6.598;2023-05-29T10:17:49;14.38;;;5.05;;
52186;SDS011;38161;53.020;6.598;2023-05-29T10:20:36;17.05;;;6.30;;
52186;SDS011;38161;53.020;6.598;2023-05-29T10:23:02;12.77;;;4.78;;
52186;SDS011;38161;53.020;6.598;2023-05-29T10:25:29;12.30;;;4.35;;
52186;SDS011;38161;53.020;6.598;2023-05-29T10:27:57;12.27;;;4.90;;
52186;SDS011;38161;53.020;6.598;2023-05-29T10:30:27;18.08;;;5.05;;
52186;SDS011;38161;53.020;6.598;2023-05-29T10:36:06;16.15;;;5.85;;
52186;SDS011;38161;53.020;6.598;2023-05-29T10:38:40;15.38;;;5.45;;
52186;SDS011;38161;53.020;6.598;2023-05-29T10:43:53;20.10;;;5.50;;
52186;SDS011;38161;53.020;6.598;2023-05-29T10:46:19;15.98;;;6.13;;
52186;SDS011;38161;53.020;6.598;2023-05-29T10:48:51;14.25;;;5.65;;
52186;SDS011;38161;53.020;6.598;2023-05-29T10:51:28;15.15;;;5.82;;
52186;SDS011;38161;53.020;6.598;2023-05-29T10:53:58;15.32;;;6.35;;
52186;SDS011;38161;53.020;6.598;2023-05-29T10:56:27;16.27;;;6.13;;
52186;SDS011;38161;53.020;6.598;2023-05-29T10:58:55;15.65;;;5.55;;
52186;SDS011;38161;53.020;6.598;2023-05-29T11:01:23;14.30;;;6.22;;
52186;SDS011;38161;53.020;6.598;2023-05-29T11:03:53;20.25;;;6.75;;
52186;SDS011;38161;53.020;6.598;2023-05-29T11:06:40;16.77;;;6.20;;
52186;SDS011;38161;53.020;6.598;2023-05-29T11:09:25;17.33;;;7.20;;
52186;SDS011;38161;53.020;6.598;2023-05-29T11:15:09;13.73;;;5.63;;
52186;SDS011;38161;53.020;6.598;2023-05-29T11:20:07;11.70;;;6.50;;
52186;SDS011;38161;53.020;6.598;2023-05-29T11:25:14;21.63;;;6.22;;
52186;SDS011;38161;53.020;6.598;2023-05-29T11:27:41;15.18;;;6.60;;
52186;SDS011;38161;53.020;6.598;2023-05-29T11:30:11;16.75;;;6.18;;
52186;SDS011;38161;53.020;6.598;2023-05-29T11:32:37;10.90;;;6.13;;
52186;SDS011;38161;53.020;6.598;2023-05-29T11:35:07;15.32;;;6.20;;
52186;SDS011;38161;53.020;6.598;2023-05-29T11:37:43;12.63;;;7.05;;
52186;SDS011;38161;53.020;6.598;2023-05-29T11:40:13;15.60;;;6.70;;
52186;SDS011;38161;53.020;6.598;2023-05-29T11:42:43;19.80;;;6.22;;
52186;SDS011;38161;53.020;6.598;2023-05-29T11:45:15;15.95;;;6.50;;
52186;SDS011;38161;53.020;6.598;2023-05-29T11:47:57;14.70;;;6.43;;
52186;SDS011;38161;53.020;6.598;2023-05-29T11:50:23;12.95;;;6.80;;
52186;SDS011;38161;53.020;6.598;2023-05-29T11:52:51;10.00;;;6.05;;
52186;SDS011;38161;53.020;6.598;2023-05-29T11:55:20;15.38;;;6.60;;
52186;SDS011;38161;53.020;6.598;2023-05-29T11:57:47;15.30;;;6.68;;
52186;SDS011;38161;53.020;6.598;2023-05-29T12:00:17;15.13;;;6.20;;
52186;SDS011;38161;53.020;6.598;2023-05-29T12:02:45;12.60;;;6.05;;
52186;SDS011;38161;53.020;6.598;2023-05-29T12:05:12;14.00;;;6.20;;
52186;SDS011;38161;53.020;6.598;2023-05-29T12:07:55;15.48;;;6.45;;
52186;SDS011;38161;53.020;6.598;2023-05-29T12:10:21;16.90;;;6.65;;
52186;SDS011;38161;53.020;6.598;2023-05-29T12:15:23;16.52;;;6.15;;
52186;SDS011;38161;53.020;6.598;2023-05-29T12:17:50;18.52;;;5.68;;
52186;SDS011;38161;53.020;6.598;2023-05-29T12:20:17;17.17;;;5.97;;
52186;SDS011;38161;53.020;6.598;2023-05-29T12:22:44;18.27;;;7.03;;
52186;SDS011;38161;53.020;6.598;2023-05-29T12:25:12;14.98;;;7.13;;
52186;SDS011;38161;53.020;6.598;2023-05-29T12:27:39;16.63;;;7.10;;
52186;SDS011;38161;53.020;6.598;2023-05-29T12:30:09;17.30;;;6.75;;
52186;SDS011;38161;53.020;6.598;2023-05-29T12:32:40;15.80;;;7.53;;
52186;SDS011;38161;53.020;6.598;2023-05-29T12:35:14;17.27;;;7.30;;
52186;SDS011;38161;53.020;6.598;2023-05-29T12:43:02;12.82;;;6.35;;
52186;SDS011;38161;53.020;6.598;2023-05-29T12:45:34;13.93;;;6.20;;
52186;SDS011;38161;53.020;6.598;2023-05-29T12:48:04;11.30;;;6.75;;
52186;SDS011;38161;53.020;6.598;2023-05-29T12:50:34;15.73;;;6.53;;
52186;SDS011;38161;53.020;6.598;2023-05-29T12:53:05;19.52;;;7.78;;
52186;SDS011;38161;53.020;6.598;2023-05-29T12:55:32;15.25;;;6.28;;
52186;SDS011;38161;53.020;6.598;2023-05-29T12:58:04;12.73;;;7.50;;
52186;SDS011;38161;53.020;6.598;2023-05-29T13:00:33;13.93;;;7.78;;
52186;SDS011;38161;53.020;6.598;2023-05-29T13:03:00;15.80;;;7.15;;
52186;SDS011;38161;53.020;6.598;2023-05-29T13:05:26;19.70;;;7.65;;
52186;SDS011;38161;53.020;6.598;2023-05-29T13:07:52;11.38;;;7.05;;
52186;SDS011;38161;53.020;6.598;2023-05-29T13:10:19;14.82;;;7.95;;
52186;SDS011;38161;53.020;6.598;2023-05-29T13:12:46;13.75;;;7.70;;
52186;SDS011;38161;53.020;6.598;2023-05-29T13:15:13;14.65;;;8.40;;
52186;SDS011;38161;53.020;6.598;2023-05-29T13:17:40;16.80;;;9.35;;
52186;SDS011;38161;53.020;6.598;2023-05-29T13:20:10;13.32;;;6.75;;
52186;SDS011;38161;53.020;6.598;2023-05-29T13:22:37;16.70;;;10.57;;
52186;SDS011;38161;53.020;6.598;2023-05-29T13:25:06;9.00;;;6.32;;
52186;SDS011;38161;53.020;6.598;2023-05-29T13:27:34;14.82;;;7.50;;
52186;SDS011;38161;53.020;6.598;2023-05-29T13:30:06;12.43;;;7.40;;
52186;SDS011;38161;53.020;6.598;2023-05-29T13:32:32;12.93;;;6.97;;
52186;SDS011;38161;53.020;6.598;2023-05-29T13:34:58;11.65;;;6.40;;
52186;SDS011;38161;53.020;6.598;2023-05-29T13:37:25;14.57;;;6.82;;
52186;SDS011;38161;53.020;6.598;2023-05-29T13:39:52;12.30;;;6.28;;
52186;SDS011;38161;53.020;6.598;2023-05-29T13:42:18;10.82;;;6.57;;
52186;SDS011;38161;53.020;6.598;2023-05-29T13:47:11;15.52;;;6.20;;
52186;SDS011;38161;53.020;6.598;2023-05-29T13:49:36;20.73;;;6.85;;
52186;SDS011;38161;53.020;6.598;2023-05-29T13:52:02;16.38;;;7.28;;
52186;SDS011;38161;53.020;6.598;2023-05-29T13:54:28;14.02;;;6.55;;
52186;SDS011;38161;53.020;6.598;2023-05-29T13:56:56;12.65;;;6.38;;
52186;SDS011;38161;53.020;6.598;2023-05-29T13:59:23;10.20;;;7.18;;
52186;SDS011;38161;53.020;6.598;2023-05-29T14:01:49;10.73;;;6.93;;
52186;SDS011;38161;53.020;6.598;2023-05-29T14:04:16;19.45;;;6.68;;
52186;SDS011;38161;53.020;6.598;2023-05-29T14:06:41;15.07;;;6.85;;
52186;SDS011;38161;53.020;6.598;2023-05-29T14:09:07;14.45;;;8.55;;
52186;SDS011;38161;53.020;6.598;2023-05-29T14:11:36;11.40;;;6.50;;
52186;SDS011;38161;53.020;6.598;2023-05-29T14:14:05;10.93;;;7.65;;
52186;SDS011;38161;53.020;6.598;2023-05-29T14:16:31;12.07;;;7.25;;
52186;SDS011;38161;53.020;6.598;2023-05-29T14:21:23;17.00;;;6.10;;
52186;SDS011;38161;53.020;6.598;2023-05-29T14:23:49;15.57;;;6.70;;
52186;SDS011;38161;53.020;6.598;2023-05-29T14:26:15;17.40;;;7.43;;
52186;SDS011;38161;53.020;6.598;2023-05-29T14:28:47;13.48;;;6.50;;
52186;SDS011;38161;53.020;6.598;2023-05-29T14:31:13;13.60;;;7.78;;
52186;SDS011;38161;53.020;6.598;2023-05-29T14:33:39;14.13;;;6.82;;
52186;SDS011;38161;53.020;6.598;2023-05-29T14:36:05;15.40;;;7.95;;
52186;SDS011;38161;53.020;6.598;2023-05-29T14:38:31;11.27;;;5.90;;
52186;SDS011;38161;53.020;6.598;2023-05-29T14:41:00;9.90;;;6.60;;
52186;SDS011;38161;53.020;6.598;2023-05-29T14:43:28;9.52;;;6.13;;
52186;SDS011;38161;53.020;6.598;2023-05-29T14:45:54;15.18;;;6.38;;
52186;SDS011;38161;53.020;6.598;2023-05-29T14:48:20;9.00;;;6.88;;
52186;SDS011;38161;53.020;6.598;2023-05-29T14:50:46;12.30;;;7.50;;
52186;SDS011;38161;53.020;6.598;2023-05-29T14:53:12;13.05;;;6.63;;
52186;SDS011;38161;53.020;6.598;2023-05-29T14:55:38;10.38;;;6.30;;
52186;SDS011;38161;53.020;6.598;2023-05-29T14:58:04;10.68;;;6.55;;
52186;SDS011;38161;53.020;6.598;2023-05-29T15:00:30;9.20;;;5.72;;
52186;SDS011;38161;53.020;6.598;2023-05-29T15:02:56;9.38;;;6.38;;
52186;SDS011;38161;53.020;6.598;2023-05-29T15:05:24;12.55;;;5.97;;
52186;SDS011;38161;53.020;6.598;2023-05-29T15:07:51;13.60;;;6.55;;
52186;SDS011;38161;53.020;6.598;2023-05-29T15:10:19;12.05;;;6.07;;
52186;SDS011;38161;53.020;6.598;2023-05-29T15:12:46;13.57;;;6.03;;
52186;SDS011;38161;53.020;6.598;2023-05-29T15:15:12;12.95;;;7.65;;
52186;SDS011;38161;53.020;6.598;2023-05-29T15:17:38;13.73;;;6.53;;
52186;SDS011;38161;53.020;6.598;2023-05-29T15:20:05;9.55;;;5.88;;
52186;SDS011;38161;53.020;6.598;2023-05-29T15:24:57;13.27;;;5.13;;
52186;SDS011;38161;53.020;6.598;2023-05-29T15:27:25;9.88;;;5.38;;
52186;SDS011;38161;53.020;6.598;2023-05-29T15:29:54;13.88;;;5.47;;
52186;SDS011;38161;53.020;6.598;2023-05-29T15:32:37;12.25;;;5.38;;
52186;SDS011;38161;53.020;6.598;2023-05-29T15:35:04;7.45;;;6.00;;
52186;SDS011;38161;53.020;6.598;2023-05-29T15:37:31;12.63;;;5.93;;
52186;SDS011;38161;53.020;6.598;2023-05-29T15:39:57;10.65;;;5.70;;
52186;SDS011;38161;53.020;6.598;2023-05-29T15:42:23;13.88;;;5.63;;
52186;SDS011;38161;53.020;6.598;2023-05-29T15:44:48;9.00;;;5.88;;
52186;SDS011;38161;53.020;6.598;2023-05-29T15:47:14;12.23;;;5.82;;
52186;SDS011;38161;53.020;6.598;2023-05-29T15:49:40;14.35;;;5.70;;